Big Bear Station Historical Data
Daily Summary for January 15, 2019 Units:  English    Metric   Both
Next Day »
Daily Weekly Monthly Yearly Custom
  High: Low: Average:
Temperature: 35.4 °F 28.4 °F 31.5 °F
Dew Point: 32.6 °F 26.0 °F 29.8 °F
Humidity: 98% 86% 94%
Wind Speed: 6.8mph 0.0mph 0.8mph
Wind Gust: -999.0mph - -
Wind- - SW
Pressure: 23.49 in 23.35 in -
Precipitation: 0.22 in    
Historical Graphs
 
 
Tabular Data for January 15, 2019
Time Temperature Dew Point Pressure Wind Wind Speed Wind Gust Humidity Rainfall Rate (Hourly)
00:07 33.3 °F 32.5 °F 23.37 in South 2.2 mph -999.0 mph 97% 0.00 in
00:22 33.1 °F 32.6 °F 23.36 in West 1.1 mph -999.0 mph 98% 0.00 in
00:37 32.7 °F 32.2 °F 23.37 in NNW 3.2 mph -999.0 mph 98% 0.00 in
00:53 32.7 °F 32.2 °F 23.36 in NNW 1.1 mph -999.0 mph 98% 0.00 in
01:09 32.4 °F 31.6 °F 23.37 in South 6.8 mph -999.0 mph 97% 0.00 in
01:24 32.0 °F 31.0 °F 23.37 in SSE 2.7 mph -999.0 mph 96% 0.00 in
01:41 32.2 °F 31.2 °F 23.38 in SE 4.2 mph -999.0 mph 96% 0.00 in
01:56 32.2 °F 30.9 °F 23.38 in Calm   -999.0 mph 95% 0.00 in
02:13 32.2 °F 30.7 °F 23.38 in SSE 2.2 mph -999.0 mph 94% 0.00 in
02:28 32.0 °F 30.5 °F 23.38 in Calm   -999.0 mph 94% 0.00 in
02:43 31.5 °F 30.0 °F 23.38 in SSW 2.7 mph -999.0 mph 94% 0.00 in
03:00 31.3 °F 29.8 °F 23.37 in Calm   -999.0 mph 94% 0.00 in
03:16 30.9 °F 29.1 °F 23.37 in Calm   -999.0 mph 93% 0.00 in
03:31 30.4 °F 28.9 °F 23.37 in Calm   -999.0 mph 94% 0.00 in
03:46 29.8 °F 28.5 °F 23.37 in Calm   -999.0 mph 95% 0.00 in
04:01 29.7 °F 28.4 °F 23.36 in Calm   -999.0 mph 95% 0.00 in
04:16 29.5 °F 28.2 °F 23.36 in Calm   -999.0 mph 95% 0.00 in
04:32 29.1 °F 27.8 °F 23.36 in Calm   -999.0 mph 95% 0.00 in
04:47 28.9 °F 27.6 °F 23.36 in Calm   -999.0 mph 95% 0.00 in
05:02 28.8 °F 27.5 °F 23.35 in Calm   -999.0 mph 95% 0.00 in
05:17 28.8 °F 27.5 °F 23.35 in Calm   -999.0 mph 95% 0.00 in
05:32 28.6 °F 26.3 °F 23.36 in Calm   -999.0 mph 91% 0.00 in
05:48 28.8 °F 26.5 °F 23.37 in Calm   -999.0 mph 91% 0.00 in
06:03 28.4 °F 26.4 °F 23.37 in Calm   -999.0 mph 92% 0.00 in
06:18 28.9 °F 26.9 °F 23.38 in Calm   -999.0 mph 92% 0.00 in
06:33 29.1 °F 26.3 °F 23.38 in South 2.7 mph -999.0 mph 89% 0.00 in
06:49 28.9 °F 26.1 °F 23.38 in Calm   -999.0 mph 89% 0.00 in
07:04 28.6 °F 26.0 °F 23.38 in Calm   -999.0 mph 90% 0.00 in
07:19 28.4 °F 26.1 °F 23.38 in Calm   -999.0 mph 91% 0.00 in
07:34 28.6 °F 26.3 °F 23.38 in Calm   -999.0 mph 91% 0.00 in
07:49 28.6 °F 26.6 °F 23.38 in Calm   -999.0 mph 92% 0.00 in
08:05 29.1 °F 27.3 °F 23.38 in Calm   -999.0 mph 93% 0.00 in
08:20 29.3 °F 27.3 °F 23.38 in Calm   -999.0 mph 92% 0.00 in
08:35 29.7 °F 27.7 °F 23.38 in Calm   -999.0 mph 92% 0.00 in
08:50 30.0 °F 28.0 °F 23.38 in Calm   -999.0 mph 92% 0.00 in
09:05 30.4 °F 28.6 °F 23.39 in NNE 3.7 mph -999.0 mph 93% 0.00 in
09:21 30.4 °F 28.6 °F 23.39 in Calm   -999.0 mph 93% 0.00 in
09:36 30.9 °F 29.1 °F 23.39 in Calm   -999.0 mph 93% 0.00 in
09:53 31.6 °F 29.8 °F 23.40 in NNW 2.7 mph -999.0 mph 93% 0.00 in
10:08 32.0 °F 30.2 °F 23.40 in NW 4.2 mph -999.0 mph 93% 0.00 in
10:23 32.7 °F 30.6 °F 23.40 in NNW 3.2 mph -999.0 mph 92% 0.00 in
10:38 33.3 °F 31.0 °F 23.40 in WNW 3.7 mph -999.0 mph 91% 0.00 in
10:53 33.1 °F 30.5 °F 23.39 in SSE 3.2 mph -999.0 mph 90% 0.00 in
11:09 33.8 °F 30.9 °F 23.39 in Calm   -999.0 mph 89% 0.00 in
11:30 33.4 °F 30.5 °F 23.39 in SSW 2.2 mph -999.0 mph 89% 0.00 in
11:45 35.1 °F 31.9 °F 23.38 in NNW 3.7 mph -999.0 mph 88% 0.00 in
12:02 33.3 °F 30.1 °F 23.38 in NE 3.2 mph -999.0 mph 88% 0.00 in
12:17 35.4 °F 31.6 °F 23.36 in Calm   -999.0 mph 86% 0.00 in
12:33 35.4 °F 31.6 °F 23.36 in Calm   -999.0 mph 86% 0.00 in
12:48 35.4 °F 31.9 °F 23.36 in NNE 1.1 mph -999.0 mph 87% 0.00 in
13:03 33.8 °F 30.6 °F 23.35 in WNW 5.8 mph -999.0 mph 88% 0.00 in
13:19 33.6 °F 31.0 °F 23.35 in Calm   -999.0 mph 90% 0.00 in
13:35 32.5 °F 30.2 °F 23.35 in NW 3.7 mph -999.0 mph 91% 0.00 in
13:50 32.5 °F 30.2 °F 23.35 in Calm   -999.0 mph 91% 0.00 in
14:07 33.3 °F 30.7 °F 23.35 in SSW 2.2 mph -999.0 mph 90% 0.00 in
14:24 32.7 °F 30.4 °F 23.35 in Calm   -999.0 mph 91% 0.00 in
14:39 32.4 °F 30.3 °F 23.35 in NW 2.2 mph -999.0 mph 92% 0.00 in
14:57 32.0 °F 30.2 °F 23.36 in Calm   -999.0 mph 93% 0.00 in
15:12 32.2 °F 30.4 °F 23.36 in Calm   -999.0 mph 93% 0.00 in
15:28 31.8 °F 30.0 °F 23.36 in Calm   -999.0 mph 93% 0.00 in
15:45 31.3 °F 29.5 °F 23.36 in Calm   -999.0 mph 93% 0.00 in
16:01 30.7 °F 28.9 °F 23.36 in WNW 1.1 mph -999.0 mph 93% 0.00 in
16:16 30.6 °F 29.1 °F 23.37 in NE 1.1 mph -999.0 mph 94% 0.00 in
16:31 30.7 °F 29.4 °F 23.37 in Calm   -999.0 mph 95% 0.00 in
16:46 30.6 °F 29.3 °F 23.37 in Calm   -999.0 mph 95% 0.00 in
17:02 30.9 °F 29.6 °F 23.37 in Calm   -999.0 mph 95% 0.00 in
17:17 30.2 °F 28.9 °F 23.38 in Calm   -999.0 mph 95% 0.00 in
17:32 30.2 °F 28.9 °F 23.38 in Calm   -999.0 mph 95% 0.00 in
17:48 30.2 °F 28.9 °F 23.37 in Calm   -999.0 mph 95% 0.00 in
18:03 30.4 °F 29.1 °F 23.38 in Calm   -999.0 mph 95% 0.00 in
18:18 30.6 °F 29.3 °F 23.39 in Calm   -999.0 mph 95% 0.00 in
18:33 30.6 °F 29.3 °F 23.39 in Calm   -999.0 mph 95% 0.00 in
18:49 30.9 °F 29.9 °F 23.40 in Calm   -999.0 mph 96% 0.00 in
19:04 31.1 °F 30.1 °F 23.41 in Calm   -999.0 mph 96% 0.00 in
19:19 31.6 °F 30.8 °F 23.41 in Calm   -999.0 mph 97% 0.00 in
19:35 31.6 °F 30.8 °F 23.41 in Calm   -999.0 mph 97% 0.00 in
19:50 31.6 °F 30.8 °F 23.40 in Calm   -999.0 mph 97% 0.00 in
20:05 32.0 °F 31.2 °F 23.41 in Calm   -999.0 mph 97% 0.00 in
20:20 32.2 °F 31.4 °F 23.41 in Calm   -999.0 mph 97% 0.00 in
20:35 32.2 °F 31.4 °F 23.41 in Calm   -999.0 mph 97% 0.00 in
20:51 32.2 °F 31.4 °F 23.42 in Calm   -999.0 mph 97% 0.00 in
21:06 32.2 °F 31.4 °F 23.43 in Calm   -999.0 mph 97% 0.00 in
21:21 32.2 °F 31.4 °F 23.43 in Calm   -999.0 mph 97% 0.00 in
21:36 32.5 °F 31.7 °F 23.44 in Calm   -999.0 mph 97% 0.00 in
21:51 32.4 °F 31.6 °F 23.45 in Calm   -999.0 mph 97% 0.00 in
22:07 32.5 °F 31.7 °F 23.46 in Calm   -999.0 mph 97% 0.00 in
22:22 32.9 °F 32.1 °F 23.46 in Calm   -999.0 mph 97% 0.00 in
22:37 32.9 °F 32.1 °F 23.46 in Calm   -999.0 mph 97% 0.00 in
22:52 32.7 °F 31.9 °F 23.48 in Calm   -999.0 mph 97% 0.00 in
23:08 33.1 °F 32.3 °F 23.47 in Calm   -999.0 mph 97% 0.00 in
23:23 33.1 °F 32.6 °F 23.48 in Calm   -999.0 mph 98% 0.00 in
23:38 32.9 °F 32.4 °F 23.49 in Calm   -999.0 mph 98% 0.00 in
23:53 32.9 °F 32.4 °F 23.49 in Calm   -999.0 mph 98% 0.00 in
Big Bear CA Weather